sensor_id;sensor_type;location;lat;lon;timestamp;temperature;humidity
41294;DHT22;27037;52.010;4.446;2024-03-06T00:00:58;7.50;99.90
41294;DHT22;27037;52.010;4.446;2024-03-06T00:03:24;7.50;99.90
41294;DHT22;27037;52.010;4.446;2024-03-06T00:05:49;7.50;99.90
41294;DHT22;27037;52.010;4.446;2024-03-06T00:08:15;7.50;99.90
41294;DHT22;27037;52.010;4.446;2024-03-06T00:10:41;7.50;99.90
41294;DHT22;27037;52.010;4.446;2024-03-06T00:13:07;7.50;99.90
41294;DHT22;27037;52.010;4.446;2024-03-06T00:15:33;7.60;99.90
41294;DHT22;27037;52.010;4.446;2024-03-06T00:17:59;7.60;99.90
41294;DHT22;27037;52.010;4.446;2024-03-06T00:20:25;7.50;99.90
41294;DHT22;27037;52.010;4.446;2024-03-06T00:22:50;7.50;99.90
41294;DHT22;27037;52.010;4.446;2024-03-06T00:25:16;7.60;99.90
41294;DHT22;27037;52.010;4.446;2024-03-06T00:27:41;7.60;99.90
41294;DHT22;27037;52.010;4.446;2024-03-06T00:30:07;7.60;99.90
41294;DHT22;27037;52.010;4.446;2024-03-06T00:32:33;7.60;99.90
41294;DHT22;27037;52.010;4.446;2024-03-06T00:34:59;7.60;99.90
41294;DHT22;27037;52.010;4.446;2024-03-06T00:37:24;7.60;99.90
41294;DHT22;27037;52.010;4.446;2024-03-06T00:39:50;7.60;99.90
41294;DHT22;27037;52.010;4.446;2024-03-06T00:42:15;7.60;99.90
41294;DHT22;27037;52.010;4.446;2024-03-06T00:44:41;7.60;99.90
41294;DHT22;27037;52.010;4.446;2024-03-06T00:47:07;7.60;99.90
41294;DHT22;27037;52.010;4.446;2024-03-06T00:49:32;7.60;99.90
41294;DHT22;27037;52.010;4.446;2024-03-06T00:51:58;7.60;99.90
41294;DHT22;27037;52.010;4.446;2024-03-06T00:54:23;7.60;99.90
41294;DHT22;27037;52.010;4.446;2024-03-06T00:56:49;7.60;99.90
41294;DHT22;27037;52.010;4.446;2024-03-06T00:59:15;7.60;99.90
41294;DHT22;27037;52.010;4.446;2024-03-06T01:01:40;7.60;99.90
41294;DHT22;27037;52.010;4.446;2024-03-06T01:04:06;7.60;99.90
41294;DHT22;27037;52.010;4.446;2024-03-06T01:06:32;7.60;99.90
41294;DHT22;27037;52.010;4.446;2024-03-06T01:08:58;7.60;99.90
41294;DHT22;27037;52.010;4.446;2024-03-06T01:11:24;7.60;99.90
41294;DHT22;27037;52.010;4.446;2024-03-06T01:13:50;7.60;99.90
41294;DHT22;27037;52.010;4.446;2024-03-06T01:16:16;7.60;99.90
41294;DHT22;27037;52.010;4.446;2024-03-06T01:18:41;7.70;99.90
41294;DHT22;27037;52.010;4.446;2024-03-06T01:21:07;7.70;99.90
41294;DHT22;27037;52.010;4.446;2024-03-06T01:23:33;7.60;99.90
41294;DHT22;27037;52.010;4.446;2024-03-06T01:25:58;7.70;99.90
41294;DHT22;27037;52.010;4.446;2024-03-06T01:28:24;7.70;99.90
41294;DHT22;27037;52.010;4.446;2024-03-06T01:30:49;7.70;99.90
41294;DHT22;27037;52.010;4.446;2024-03-06T01:33:15;7.70;99.90
41294;DHT22;27037;52.010;4.446;2024-03-06T01:35:40;7.70;99.90
41294;DHT22;27037;52.010;4.446;2024-03-06T01:38:06;7.70;99.90
41294;DHT22;27037;52.010;4.446;2024-03-06T01:40:32;7.70;99.90
41294;DHT22;27037;52.010;4.446;2024-03-06T01:42:58;7.70;99.90
41294;DHT22;27037;52.010;4.446;2024-03-06T01:45:24;7.70;99.90
41294;DHT22;27037;52.010;4.446;2024-03-06T01:47:49;7.70;99.90
41294;DHT22;27037;52.010;4.446;2024-03-06T01:50:16;7.70;99.90
41294;DHT22;27037;52.010;4.446;2024-03-06T01:52:42;7.70;99.90
41294;DHT22;27037;52.010;4.446;2024-03-06T01:55:09;7.70;99.90
41294;DHT22;27037;52.010;4.446;2024-03-06T01:57:38;7.70;99.90
41294;DHT22;27037;52.010;4.446;2024-03-06T02:00:06;7.70;99.90
41294;DHT22;27037;52.010;4.446;2024-03-06T02:02:33;7.70;99.90
41294;DHT22;27037;52.010;4.446;2024-03-06T02:04:59;7.70;99.90
41294;DHT22;27037;52.010;4.446;2024-03-06T02:07:25;7.70;99.90
41294;DHT22;27037;52.010;4.446;2024-03-06T02:09:51;7.70;99.90
41294;DHT22;27037;52.010;4.446;2024-03-06T02:12:17;7.70;99.90
41294;DHT22;27037;52.010;4.446;2024-03-06T02:14:43;7.70;99.90
41294;DHT22;27037;52.010;4.446;2024-03-06T02:17:09;7.70;99.90
41294;DHT22;27037;52.010;4.446;2024-03-06T02:19:39;7.70;99.90
41294;DHT22;27037;52.010;4.446;2024-03-06T02:22:06;7.70;99.90
41294;DHT22;27037;52.010;4.446;2024-03-06T02:24:32;7.70;99.90
41294;DHT22;27037;52.010;4.446;2024-03-06T02:26:57;7.70;99.90
41294;DHT22;27037;52.010;4.446;2024-03-06T02:29:26;7.70;99.90
41294;DHT22;27037;52.010;4.446;2024-03-06T02:31:51;7.70;99.90
41294;DHT22;27037;52.010;4.446;2024-03-06T02:34:17;7.70;99.90
41294;DHT22;27037;52.010;4.446;2024-03-06T02:36:43;7.70;99.90
41294;DHT22;27037;52.010;4.446;2024-03-06T02:39:08;7.60;99.90
41294;DHT22;27037;52.010;4.446;2024-03-06T02:41:35;7.60;99.90
41294;DHT22;27037;52.010;4.446;2024-03-06T02:44:01;7.60;99.90
41294;DHT22;27037;52.010;4.446;2024-03-06T02:46:28;7.60;99.90
41294;DHT22;27037;52.010;4.446;2024-03-06T02:48:53;7.50;99.90
41294;DHT22;27037;52.010;4.446;2024-03-06T02:51:20;7.50;99.90
41294;DHT22;27037;52.010;4.446;2024-03-06T02:53:46;7.50;99.90
41294;DHT22;27037;52.010;4.446;2024-03-06T02:56:18;7.50;99.90
41294;DHT22;27037;52.010;4.446;2024-03-06T02:58:45;7.50;99.90
41294;DHT22;27037;52.010;4.446;2024-03-06T03:01:10;7.40;99.90
41294;DHT22;27037;52.010;4.446;2024-03-06T03:03:36;7.40;99.90
41294;DHT22;27037;52.010;4.446;2024-03-06T03:06:02;7.40;99.90
41294;DHT22;27037;52.010;4.446;2024-03-06T03:08:28;7.40;99.90
41294;DHT22;27037;52.010;4.446;2024-03-06T03:10:53;7.40;99.90
41294;DHT22;27037;52.010;4.446;2024-03-06T03:13:19;7.40;99.90
41294;DHT22;27037;52.010;4.446;2024-03-06T03:15:44;7.30;99.90
41294;DHT22;27037;52.010;4.446;2024-03-06T03:18:10;7.30;99.90
41294;DHT22;27037;52.010;4.446;2024-03-06T03:20:36;7.30;99.90
41294;DHT22;27037;52.010;4.446;2024-03-06T03:23:02;7.30;99.90
41294;DHT22;27037;52.010;4.446;2024-03-06T03:25:27;7.30;99.90
41294;DHT22;27037;52.010;4.446;2024-03-06T03:27:53;7.20;99.90
41294;DHT22;27037;52.010;4.446;2024-03-06T03:30:18;7.30;99.90
41294;DHT22;27037;52.010;4.446;2024-03-06T03:32:50;7.20;99.90
41294;DHT22;27037;52.010;4.446;2024-03-06T03:35:15;7.30;99.90
41294;DHT22;27037;52.010;4.446;2024-03-06T03:37:42;7.30;99.90
41294;DHT22;27037;52.010;4.446;2024-03-06T03:40:09;7.30;99.90
41294;DHT22;27037;52.010;4.446;2024-03-06T03:42:37;7.30;99.90
41294;DHT22;27037;52.010;4.446;2024-03-06T03:45:03;7.30;99.90
41294;DHT22;27037;52.010;4.446;2024-03-06T03:47:30;7.30;99.90
41294;DHT22;27037;52.010;4.446;2024-03-06T03:49:55;7.30;99.90
41294;DHT22;27037;52.010;4.446;2024-03-06T03:52:21;7.30;99.90
41294;DHT22;27037;52.010;4.446;2024-03-06T03:54:47;7.30;99.90
41294;DHT22;27037;52.010;4.446;2024-03-06T03:57:13;7.30;99.90
41294;DHT22;27037;52.010;4.446;2024-03-06T03:59:39;7.30;99.90
41294;DHT22;27037;52.010;4.446;2024-03-06T04:02:06;7.30;99.90
41294;DHT22;27037;52.010;4.446;2024-03-06T04:04:32;7.30;99.90
41294;DHT22;27037;52.010;4.446;2024-03-06T04:06:59;7.30;99.90
41294;DHT22;27037;52.010;4.446;2024-03-06T04:09:30;7.30;99.90
41294;DHT22;27037;52.010;4.446;2024-03-06T04:11:55;7.30;99.90
41294;DHT22;27037;52.010;4.446;2024-03-06T04:14:21;7.30;99.90
41294;DHT22;27037;52.010;4.446;2024-03-06T04:16:47;7.30;99.90
41294;DHT22;27037;52.010;4.446;2024-03-06T04:19:13;7.30;99.90
41294;DHT22;27037;52.010;4.446;2024-03-06T04:21:43;7.20;99.90
41294;DHT22;27037;52.010;4.446;2024-03-06T04:24:08;7.20;99.90
41294;DHT22;27037;52.010;4.446;2024-03-06T04:26:35;7.20;99.90
41294;DHT22;27037;52.010;4.446;2024-03-06T04:29:00;7.20;99.90
41294;DHT22;27037;52.010;4.446;2024-03-06T04:31:26;7.20;99.90
41294;DHT22;27037;52.010;4.446;2024-03-06T04:33:51;7.10;99.90
41294;DHT22;27037;52.010;4.446;2024-03-06T04:36:17;7.10;99.90
41294;DHT22;27037;52.010;4.446;2024-03-06T04:38:43;7.10;99.90
41294;DHT22;27037;52.010;4.446;2024-03-06T04:41:08;7.00;99.90
41294;DHT22;27037;52.010;4.446;2024-03-06T04:43:34;7.00;99.90
41294;DHT22;27037;52.010;4.446;2024-03-06T04:46:00;7.00;99.90
41294;DHT22;27037;52.010;4.446;2024-03-06T04:48:26;6.90;99.90
41294;DHT22;27037;52.010;4.446;2024-03-06T04:50:51;6.80;99.90
41294;DHT22;27037;52.010;4.446;2024-03-06T04:53:18;6.80;99.90
41294;DHT22;27037;52.010;4.446;2024-03-06T04:55:45;6.70;99.90
41294;DHT22;27037;52.010;4.446;2024-03-06T04:58:11;6.60;99.90
41294;DHT22;27037;52.010;4.446;2024-03-06T05:00:37;6.60;99.90
41294;DHT22;27037;52.010;4.446;2024-03-06T05:03:03;6.60;99.90
41294;DHT22;27037;52.010;4.446;2024-03-06T05:05:28;6.50;99.90
41294;DHT22;27037;52.010;4.446;2024-03-06T05:07:55;6.50;99.90
41294;DHT22;27037;52.010;4.446;2024-03-06T05:10:20;6.40;99.90
41294;DHT22;27037;52.010;4.446;2024-03-06T05:12:46;6.40;99.90
41294;DHT22;27037;52.010;4.446;2024-03-06T05:15:12;6.30;99.90
41294;DHT22;27037;52.010;4.446;2024-03-06T05:17:38;6.30;99.90
41294;DHT22;27037;52.010;4.446;2024-03-06T05:20:04;6.20;99.90
41294;DHT22;27037;52.010;4.446;2024-03-06T05:22:30;6.20;99.90
41294;DHT22;27037;52.010;4.446;2024-03-06T05:24:56;6.20;99.90
41294;DHT22;27037;52.010;4.446;2024-03-06T05:27:22;6.10;99.90
41294;DHT22;27037;52.010;4.446;2024-03-06T05:29:47;6.10;99.90
41294;DHT22;27037;52.010;4.446;2024-03-06T05:32:13;6.10;99.90
41294;DHT22;27037;52.010;4.446;2024-03-06T05:34:39;6.00;99.90
41294;DHT22;27037;52.010;4.446;2024-03-06T05:37:04;6.00;99.90
41294;DHT22;27037;52.010;4.446;2024-03-06T05:39:31;5.90;99.90
41294;DHT22;27037;52.010;4.446;2024-03-06T05:42:01;5.90;99.90
41294;DHT22;27037;52.010;4.446;2024-03-06T05:44:33;5.90;99.90
41294;DHT22;27037;52.010;4.446;2024-03-06T05:47:00;5.80;99.90
41294;DHT22;27037;52.010;4.446;2024-03-06T05:49:29;5.80;99.90
41294;DHT22;27037;52.010;4.446;2024-03-06T05:51:55;5.80;99.90
41294;DHT22;27037;52.010;4.446;2024-03-06T05:54:21;5.70;99.90
41294;DHT22;27037;52.010;4.446;2024-03-06T05:56:51;5.70;99.90
41294;DHT22;27037;52.010;4.446;2024-03-06T05:59:17;5.70;99.90
41294;DHT22;27037;52.010;4.446;2024-03-06T06:01:43;5.60;99.90
41294;DHT22;27037;52.010;4.446;2024-03-06T06:04:10;5.60;99.90
41294;DHT22;27037;52.010;4.446;2024-03-06T06:06:36;5.50;99.90
41294;DHT22;27037;52.010;4.446;2024-03-06T06:09:01;5.50;99.90
41294;DHT22;27037;52.010;4.446;2024-03-06T06:11:30;5.50;99.90
41294;DHT22;27037;52.010;4.446;2024-03-06T06:13:56;5.50;99.90
41294;DHT22;27037;52.010;4.446;2024-03-06T06:16:21;5.40;99.90
41294;DHT22;27037;52.010;4.446;2024-03-06T06:18:47;5.40;99.90
41294;DHT22;27037;52.010;4.446;2024-03-06T06:21:12;5.40;99.90
41294;DHT22;27037;52.010;4.446;2024-03-06T06:23:38;5.40;99.90
41294;DHT22;27037;52.010;4.446;2024-03-06T06:26:04;5.30;99.90
41294;DHT22;27037;52.010;4.446;2024-03-06T06:28:30;5.30;99.90
41294;DHT22;27037;52.010;4.446;2024-03-06T06:30:56;5.30;99.90
41294;DHT22;27037;52.010;4.446;2024-03-06T06:33:21;5.20;99.90
41294;DHT22;27037;52.010;4.446;2024-03-06T06:35:47;5.20;99.90
41294;DHT22;27037;52.010;4.446;2024-03-06T06:38:13;5.20;99.90
41294;DHT22;27037;52.010;4.446;2024-03-06T06:40:39;5.20;99.90
41294;DHT22;27037;52.010;4.446;2024-03-06T06:43:06;5.20;99.90
41294;DHT22;27037;52.010;4.446;2024-03-06T06:45:31;5.20;99.90
41294;DHT22;27037;52.010;4.446;2024-03-06T06:47:57;5.20;99.90
41294;DHT22;27037;52.010;4.446;2024-03-06T06:50:23;5.10;99.90
41294;DHT22;27037;52.010;4.446;2024-03-06T06:52:51;5.10;99.90
41294;DHT22;27037;52.010;4.446;2024-03-06T06:55:17;5.10;99.90
41294;DHT22;27037;52.010;4.446;2024-03-06T06:57:43;5.10;99.90
41294;DHT22;27037;52.010;4.446;2024-03-06T07:00:09;5.20;99.90
41294;DHT22;27037;52.010;4.446;2024-03-06T07:02:39;5.20;99.90
41294;DHT22;27037;52.010;4.446;2024-03-06T07:05:05;5.20;99.90
41294;DHT22;27037;52.010;4.446;2024-03-06T07:07:31;5.20;99.90
41294;DHT22;27037;52.010;4.446;2024-03-06T07:09:56;5.20;99.90
41294;DHT22;27037;52.010;4.446;2024-03-06T07:12:22;5.20;99.90
41294;DHT22;27037;52.010;4.446;2024-03-06T07:14:47;5.20;99.90
41294;DHT22;27037;52.010;4.446;2024-03-06T07:17:13;5.20;99.90
41294;DHT22;27037;52.010;4.446;2024-03-06T07:19:39;5.30;99.90
41294;DHT22;27037;52.010;4.446;2024-03-06T07:22:05;5.30;99.90
41294;DHT22;27037;52.010;4.446;2024-03-06T07:24:31;5.30;99.90
41294;DHT22;27037;52.010;4.446;2024-03-06T07:26:56;5.40;99.90
41294;DHT22;27037;52.010;4.446;2024-03-06T07:29:22;5.40;99.90
41294;DHT22;27037;52.010;4.446;2024-03-06T07:31:47;5.40;99.90
41294;DHT22;27037;52.010;4.446;2024-03-06T07:34:13;5.40;99.90
41294;DHT22;27037;52.010;4.446;2024-03-06T07:36:40;5.50;99.90
41294;DHT22;27037;52.010;4.446;2024-03-06T07:39:05;5.50;99.90
41294;DHT22;27037;52.010;4.446;2024-03-06T07:41:31;5.50;99.90
41294;DHT22;27037;52.010;4.446;2024-03-06T07:44:00;5.60;99.90
41294;DHT22;27037;52.010;4.446;2024-03-06T07:46:26;5.60;99.90
41294;DHT22;27037;52.010;4.446;2024-03-06T07:48:52;5.60;99.90
41294;DHT22;27037;52.010;4.446;2024-03-06T07:51:17;5.70;99.90
41294;DHT22;27037;52.010;4.446;2024-03-06T07:53:43;5.80;99.90
41294;DHT22;27037;52.010;4.446;2024-03-06T07:56:12;5.80;99.90
41294;DHT22;27037;52.010;4.446;2024-03-06T07:58:38;5.90;99.90
41294;DHT22;27037;52.010;4.446;2024-03-06T08:01:04;6.00;99.90
41294;DHT22;27037;52.010;4.446;2024-03-06T08:03:29;6.00;99.90
41294;DHT22;27037;52.010;4.446;2024-03-06T08:05:55;6.10;99.90
41294;DHT22;27037;52.010;4.446;2024-03-06T08:08:21;6.20;99.90
41294;DHT22;27037;52.010;4.446;2024-03-06T08:10:47;6.20;99.90
41294;DHT22;27037;52.010;4.446;2024-03-06T08:13:13;6.30;99.90
41294;DHT22;27037;52.010;4.446;2024-03-06T08:15:39;6.40;99.90
41294;DHT22;27037;52.010;4.446;2024-03-06T08:18:06;6.40;99.90
41294;DHT22;27037;52.010;4.446;2024-03-06T08:20:31;6.50;99.90
41294;DHT22;27037;52.010;4.446;2024-03-06T08:22:57;6.60;99.90
41294;DHT22;27037;52.010;4.446;2024-03-06T08:25:23;6.60;99.90
41294;DHT22;27037;52.010;4.446;2024-03-06T08:27:48;6.70;99.90
41294;DHT22;27037;52.010;4.446;2024-03-06T08:30:14;6.80;99.90
41294;DHT22;27037;52.010;4.446;2024-03-06T08:32:40;6.90;99.90
41294;DHT22;27037;52.010;4.446;2024-03-06T08:35:08;6.90;99.90
41294;DHT22;27037;52.010;4.446;2024-03-06T08:37:37;7.00;99.90
41294;DHT22;27037;52.010;4.446;2024-03-06T08:40:03;7.10;99.90
41294;DHT22;27037;52.010;4.446;2024-03-06T08:42:28;7.20;99.90
41294;DHT22;27037;52.010;4.446;2024-03-06T08:44:54;7.30;99.90
41294;DHT22;27037;52.010;4.446;2024-03-06T08:47:20;7.40;99.90
41294;DHT22;27037;52.010;4.446;2024-03-06T08:49:45;7.40;99.90
41294;DHT22;27037;52.010;4.446;2024-03-06T08:52:12;7.50;99.90
41294;DHT22;27037;52.010;4.446;2024-03-06T08:54:38;7.60;99.90
41294;DHT22;27037;52.010;4.446;2024-03-06T08:57:04;7.70;99.90
41294;DHT22;27037;52.010;4.446;2024-03-06T08:59:29;7.80;99.90
41294;DHT22;27037;52.010;4.446;2024-03-06T09:01:55;7.90;99.90
41294;DHT22;27037;52.010;4.446;2024-03-06T09:04:22;8.10;99.90
41294;DHT22;27037;52.010;4.446;2024-03-06T09:06:47;8.20;99.90
41294;DHT22;27037;52.010;4.446;2024-03-06T09:09:14;8.40;99.90
41294;DHT22;27037;52.010;4.446;2024-03-06T09:11:41;8.50;99.90
41294;DHT22;27037;52.010;4.446;2024-03-06T09:14:07;8.60;99.90
41294;DHT22;27037;52.010;4.446;2024-03-06T09:16:35;8.70;99.90
41294;DHT22;27037;52.010;4.446;2024-03-06T09:19:00;8.80;99.90
41294;DHT22;27037;52.010;4.446;2024-03-06T09:21:26;9.00;99.90
41294;DHT22;27037;52.010;4.446;2024-03-06T09:23:52;9.20;99.90
41294;DHT22;27037;52.010;4.446;2024-03-06T09:26:18;9.30;99.90
41294;DHT22;27037;52.010;4.446;2024-03-06T09:28:43;9.40;99.90
41294;DHT22;27037;52.010;4.446;2024-03-06T09:31:09;9.50;99.90
41294;DHT22;27037;52.010;4.446;2024-03-06T09:33:34;9.60;99.90
41294;DHT22;27037;52.010;4.446;2024-03-06T09:36:00;9.80;99.90
41294;DHT22;27037;52.010;4.446;2024-03-06T09:38:26;9.90;99.90
41294;DHT22;27037;52.010;4.446;2024-03-06T09:40:53;10.10;99.90
41294;DHT22;27037;52.010;4.446;2024-03-06T09:43:20;10.20;99.90
41294;DHT22;27037;52.010;4.446;2024-03-06T09:45:48;10.20;99.90
41294;DHT22;27037;52.010;4.446;2024-03-06T09:48:18;10.40;99.90
41294;DHT22;27037;52.010;4.446;2024-03-06T09:50:46;10.50;99.90
41294;DHT22;27037;52.010;4.446;2024-03-06T09:53:16;10.60;99.90
41294;DHT22;27037;52.010;4.446;2024-03-06T09:55:42;10.70;99.90
41294;DHT22;27037;52.010;4.446;2024-03-06T09:58:08;10.90;99.90
41294;DHT22;27037;52.010;4.446;2024-03-06T10:00:36;11.10;99.90
41294;DHT22;27037;52.010;4.446;2024-03-06T10:03:03;11.20;99.90
41294;DHT22;27037;52.010;4.446;2024-03-06T10:05:31;11.30;99.90
41294;DHT22;27037;52.010;4.446;2024-03-06T10:08:00;11.40;99.90
41294;DHT22;27037;52.010;4.446;2024-03-06T10:10:26;11.50;99.90
41294;DHT22;27037;52.010;4.446;2024-03-06T10:12:52;11.60;99.90
41294;DHT22;27037;52.010;4.446;2024-03-06T10:15:18;11.60;99.90
41294;DHT22;27037;52.010;4.446;2024-03-06T10:17:44;11.60;99.90
41294;DHT22;27037;52.010;4.446;2024-03-06T10:20:23;11.70;99.90
41294;DHT22;27037;52.010;4.446;2024-03-06T10:22:50;11.80;99.90
41294;DHT22;27037;52.010;4.446;2024-03-06T10:25:25;11.90;99.90
41294;DHT22;27037;52.010;4.446;2024-03-06T10:28:06;12.10;99.90
41294;DHT22;27037;52.010;4.446;2024-03-06T10:30:36;12.20;99.90
41294;DHT22;27037;52.010;4.446;2024-03-06T10:33:05;12.30;99.90
41294;DHT22;27037;52.010;4.446;2024-03-06T10:35:32;12.40;99.90
41294;DHT22;27037;52.010;4.446;2024-03-06T10:38:00;12.40;99.90
41294;DHT22;27037;52.010;4.446;2024-03-06T10:40:31;12.40;99.90
41294;DHT22;27037;52.010;4.446;2024-03-06T10:42:59;12.50;99.90
41294;DHT22;27037;52.010;4.446;2024-03-06T10:45:51;12.60;99.90
41294;DHT22;27037;52.010;4.446;2024-03-06T10:48:18;12.70;99.90
41294;DHT22;27037;52.010;4.446;2024-03-06T10:50:46;12.90;99.90
41294;DHT22;27037;52.010;4.446;2024-03-06T10:53:14;13.00;99.90
41294;DHT22;27037;52.010;4.446;2024-03-06T10:55:42;13.10;99.90
41294;DHT22;27037;52.010;4.446;2024-03-06T10:58:09;13.10;99.90
41294;DHT22;27037;52.010;4.446;2024-03-06T11:00:42;13.10;99.90
41294;DHT22;27037;52.010;4.446;2024-03-06T11:03:10;13.00;99.90
41294;DHT22;27037;52.010;4.446;2024-03-06T11:05:39;13.00;99.90
41294;DHT22;27037;52.010;4.446;2024-03-06T11:08:09;12.90;99.90
41294;DHT22;27037;52.010;4.446;2024-03-06T11:10:38;12.90;99.90
41294;DHT22;27037;52.010;4.446;2024-03-06T11:13:08;12.90;99.90
41294;DHT22;27037;52.010;4.446;2024-03-06T11:15:34;13.00;99.90
41294;DHT22;27037;52.010;4.446;2024-03-06T11:19:02;13.10;99.90
41294;DHT22;27037;52.010;4.446;2024-03-06T11:23:34;13.20;99.90
41294;DHT22;27037;52.010;4.446;2024-03-06T11:26:03;13.30;99.90
41294;DHT22;27037;52.010;4.446;2024-03-06T11:28:31;13.40;99.90
41294;DHT22;27037;52.010;4.446;2024-03-06T11:30:59;13.50;99.90
41294;DHT22;27037;52.010;4.446;2024-03-06T11:33:44;13.60;99.90
41294;DHT22;27037;52.010;4.446;2024-03-06T11:39:04;13.50;99.90
41294;DHT22;27037;52.010;4.446;2024-03-06T11:41:51;13.50;99.90
41294;DHT22;27037;52.010;4.446;2024-03-06T11:44:21;13.40;99.90
41294;DHT22;27037;52.010;4.446;2024-03-06T11:46:49;13.30;99.90
41294;DHT22;27037;52.010;4.446;2024-03-06T11:49:22;13.20;99.90
41294;DHT22;27037;52.010;4.446;2024-03-06T11:51:52;13.20;99.90
41294;DHT22;27037;52.010;4.446;2024-03-06T11:54:17;13.20;99.90
41294;DHT22;27037;52.010;4.446;2024-03-06T11:56:51;13.30;99.90
41294;DHT22;27037;52.010;4.446;2024-03-06T11:59:17;13.50;99.90
41294;DHT22;27037;52.010;4.446;2024-03-06T12:01:43;13.60;99.90
41294;DHT22;27037;52.010;4.446;2024-03-06T12:04:09;13.70;99.90
41294;DHT22;27037;52.010;4.446;2024-03-06T12:06:35;13.90;99.90
41294;DHT22;27037;52.010;4.446;2024-03-06T12:09:02;13.90;99.90
41294;DHT22;27037;52.010;4.446;2024-03-06T12:11:27;14.00;99.90
41294;DHT22;27037;52.010;4.446;2024-03-06T12:13:54;14.00;99.90
41294;DHT22;27037;52.010;4.446;2024-03-06T12:16:21;14.10;99.90
41294;DHT22;27037;52.010;4.446;2024-03-06T12:18:46;14.10;99.90
41294;DHT22;27037;52.010;4.446;2024-03-06T12:21:12;14.20;99.90
41294;DHT22;27037;52.010;4.446;2024-03-06T12:23:41;14.30;99.90
41294;DHT22;27037;52.010;4.446;2024-03-06T12:26:07;14.40;99.90
41294;DHT22;27037;52.010;4.446;2024-03-06T12:28:37;14.50;99.90
41294;DHT22;27037;52.010;4.446;2024-03-06T12:31:04;14.60;99.90
41294;DHT22;27037;52.010;4.446;2024-03-06T12:33:30;14.70;99.90
41294;DHT22;27037;52.010;4.446;2024-03-06T12:36:01;14.80;99.90
41294;DHT22;27037;52.010;4.446;2024-03-06T12:38:29;14.90;99.90
41294;DHT22;27037;52.010;4.446;2024-03-06T12:40:57;15.00;99.90
41294;DHT22;27037;52.010;4.446;2024-03-06T12:43:24;15.10;99.90
41294;DHT22;27037;52.010;4.446;2024-03-06T12:45:50;15.20;99.90
41294;DHT22;27037;52.010;4.446;2024-03-06T12:48:15;15.40;99.90
41294;DHT22;27037;52.010;4.446;2024-03-06T12:50:41;15.50;99.90
41294;DHT22;27037;52.010;4.446;2024-03-06T12:53:08;15.50;99.90
41294;DHT22;27037;52.010;4.446;2024-03-06T12:55:34;15.60;99.90
41294;DHT22;27037;52.010;4.446;2024-03-06T12:58:01;15.50;99.90
41294;DHT22;27037;52.010;4.446;2024-03-06T13:00:27;15.40;99.90
41294;DHT22;27037;52.010;4.446;2024-03-06T13:02:53;15.30;99.90
41294;DHT22;27037;52.010;4.446;2024-03-06T13:05:19;15.40;99.90
41294;DHT22;27037;52.010;4.446;2024-03-06T13:07:45;15.30;99.90
41294;DHT22;27037;52.010;4.446;2024-03-06T13:10:11;15.40;99.90
41294;DHT22;27037;52.010;4.446;2024-03-06T13:12:38;15.30;99.90
41294;DHT22;27037;52.010;4.446;2024-03-06T13:15:03;15.20;99.90
41294;DHT22;27037;52.010;4.446;2024-03-06T13:17:30;15.10;99.90
41294;DHT22;27037;52.010;4.446;2024-03-06T13:19:56;15.00;99.90
41294;DHT22;27037;52.010;4.446;2024-03-06T13:22:22;14.90;99.90
41294;DHT22;27037;52.010;4.446;2024-03-06T13:24:48;14.80;99.90
41294;DHT22;27037;52.010;4.446;2024-03-06T13:27:14;14.70;99.90
41294;DHT22;27037;52.010;4.446;2024-03-06T13:29:39;14.50;99.90
41294;DHT22;27037;52.010;4.446;2024-03-06T13:32:10;14.40;99.90
41294;DHT22;27037;52.010;4.446;2024-03-06T13:34:36;14.40;99.90
41294;DHT22;27037;52.010;4.446;2024-03-06T13:37:01;14.40;99.90
41294;DHT22;27037;52.010;4.446;2024-03-06T13:39:27;14.50;99.90
41294;DHT22;27037;52.010;4.446;2024-03-06T13:41:53;14.60;99.90
41294;DHT22;27037;52.010;4.446;2024-03-06T13:44:20;14.70;99.90
41294;DHT22;27037;52.010;4.446;2024-03-06T13:46:46;14.90;99.90
41294;DHT22;27037;52.010;4.446;2024-03-06T13:49:39;15.00;99.90
41294;DHT22;27037;52.010;4.446;2024-03-06T13:52:06;15.10;99.90
41294;DHT22;27037;52.010;4.446;2024-03-06T13:54:33;15.20;99.90
41294;DHT22;27037;52.010;4.446;2024-03-06T13:56:59;15.20;99.90
41294;DHT22;27037;52.010;4.446;2024-03-06T13:59:31;15.30;99.90
41294;DHT22;27037;52.010;4.446;2024-03-06T14:01:57;15.40;99.90
41294;DHT22;27037;52.010;4.446;2024-03-06T14:04:24;15.50;99.90
41294;DHT22;27037;52.010;4.446;2024-03-06T14:06:50;15.60;99.90
41294;DHT22;27037;52.010;4.446;2024-03-06T14:09:16;15.60;99.90
41294;DHT22;27037;52.010;4.446;2024-03-06T14:11:41;15.60;99.90
41294;DHT22;27037;52.010;4.446;2024-03-06T14:14:07;15.50;99.90
41294;DHT22;27037;52.010;4.446;2024-03-06T14:16:34;15.40;99.90
41294;DHT22;27037;52.010;4.446;2024-03-06T14:19:00;15.30;99.90
41294;DHT22;27037;52.010;4.446;2024-03-06T14:21:26;15.20;99.90
41294;DHT22;27037;52.010;4.446;2024-03-06T14:23:51;15.00;99.90
41294;DHT22;27037;52.010;4.446;2024-03-06T14:26:17;14.80;99.90
41294;DHT22;27037;52.010;4.446;2024-03-06T14:28:42;14.70;99.90
41294;DHT22;27037;52.010;4.446;2024-03-06T14:31:08;14.50;99.90
41294;DHT22;27037;52.010;4.446;2024-03-06T14:33:37;14.40;99.90
41294;DHT22;27037;52.010;4.446;2024-03-06T14:36:03;14.30;99.90
41294;DHT22;27037;52.010;4.446;2024-03-06T14:38:29;14.20;99.90
41294;DHT22;27037;52.010;4.446;2024-03-06T14:40:54;14.20;99.90
41294;DHT22;27037;52.010;4.446;2024-03-06T14:43:20;14.10;99.90
41294;DHT22;27037;52.010;4.446;2024-03-06T14:45:46;14.00;99.90
41294;DHT22;27037;52.010;4.446;2024-03-06T14:48:11;14.00;99.90
41294;DHT22;27037;52.010;4.446;2024-03-06T14:50:37;13.80;99.90
41294;DHT22;27037;52.010;4.446;2024-03-06T14:53:03;13.80;99.90
41294;DHT22;27037;52.010;4.446;2024-03-06T14:55:28;13.60;99.90
41294;DHT22;27037;52.010;4.446;2024-03-06T14:57:54;13.50;99.90
41294;DHT22;27037;52.010;4.446;2024-03-06T15:00:20;13.50;99.90
41294;DHT22;27037;52.010;4.446;2024-03-06T15:02:48;13.40;99.90
41294;DHT22;27037;52.010;4.446;2024-03-06T15:05:14;13.30;99.90
41294;DHT22;27037;52.010;4.446;2024-03-06T15:07:40;13.20;99.90
41294;DHT22;27037;52.010;4.446;2024-03-06T15:10:06;13.10;99.90
41294;DHT22;27037;52.010;4.446;2024-03-06T15:12:33;13.00;99.90
41294;DHT22;27037;52.010;4.446;2024-03-06T15:14:59;13.00;99.90
41294;DHT22;27037;52.010;4.446;2024-03-06T15:17:25;12.90;99.90
41294;DHT22;27037;52.010;4.446;2024-03-06T15:19:51;12.80;99.90
41294;DHT22;27037;52.010;4.446;2024-03-06T15:22:17;12.70;99.90
41294;DHT22;27037;52.010;4.446;2024-03-06T15:24:43;12.70;99.90
41294;DHT22;27037;52.010;4.446;2024-03-06T15:27:10;12.70;99.90
41294;DHT22;27037;52.010;4.446;2024-03-06T15:29:36;12.70;99.90
41294;DHT22;27037;52.010;4.446;2024-03-06T15:32:02;12.60;99.90
41294;DHT22;27037;52.010;4.446;2024-03-06T15:34:28;12.60;99.90
41294;DHT22;27037;52.010;4.446;2024-03-06T15:36:53;12.60;99.90
41294;DHT22;27037;52.010;4.446;2024-03-06T15:39:19;12.50;99.90
41294;DHT22;27037;52.010;4.446;2024-03-06T15:41:45;12.40;99.90